sensor_id;sensor_type;location;lat;lon;timestamp;P1;durP1;ratioP1;P2;durP2;ratioP2
44430;SDS011;30135;47.866;-4.222;2023-03-01T00:01:20;0.40;;;0.20;;
44430;SDS011;30135;47.866;-4.222;2023-03-01T00:03:52;0.75;;;0.30;;
44430;SDS011;30135;47.866;-4.222;2023-03-01T00:06:19;1.17;;;0.40;;
44430;SDS011;30135;47.866;-4.222;2023-03-01T00:08:47;1.75;;;0.40;;
44430;SDS011;30135;47.866;-4.222;2023-03-01T00:11:24;0.22;;;0.20;;
44430;SDS011;30135;47.866;-4.222;2023-03-01T00:13:56;7.78;;;0.38;;
44430;SDS011;30135;47.866;-4.222;2023-03-01T00:16:35;2.60;;;1.50;;
44430;SDS011;30135;47.866;-4.222;2023-03-01T00:19:04;0.35;;;0.22;;
44430;SDS011;30135;47.866;-4.222;2023-03-01T00:21:32;1.13;;;0.40;;
44430;SDS011;30135;47.866;-4.222;2023-03-01T00:24:00;1.15;;;0.47;;
44430;SDS011;30135;47.866;-4.222;2023-03-01T00:26:27;0.47;;;0.15;;
44430;SDS011;30135;47.866;-4.222;2023-03-01T00:28:54;0.70;;;0.28;;
44430;SDS011;30135;47.866;-4.222;2023-03-01T00:31:22;1.13;;;0.50;;
44430;SDS011;30135;47.866;-4.222;2023-03-01T00:36:22;1.92;;;0.65;;
44430;SDS011;30135;47.866;-4.222;2023-03-01T00:38:54;0.65;;;0.40;;
44430;SDS011;30135;47.866;-4.222;2023-03-01T00:41:21;1.27;;;0.70;;
44430;SDS011;30135;47.866;-4.222;2023-03-01T00:43:47;3.42;;;0.45;;
44430;SDS011;30135;47.866;-4.222;2023-03-01T00:46:16;4.18;;;0.60;;
44430;SDS011;30135;47.866;-4.222;2023-03-01T00:48:44;0.90;;;0.50;;
44430;SDS011;30135;47.866;-4.222;2023-03-01T00:51:18;2.15;;;0.38;;
44430;SDS011;30135;47.866;-4.222;2023-03-01T00:53:47;1.40;;;0.45;;
44430;SDS011;30135;47.866;-4.222;2023-03-01T00:56:17;0.95;;;0.43;;
44430;SDS011;30135;47.866;-4.222;2023-03-01T00:58:43;2.20;;;0.38;;
44430;SDS011;30135;47.866;-4.222;2023-03-01T01:01:10;0.30;;;0.20;;
44430;SDS011;30135;47.866;-4.222;2023-03-01T01:03:52;0.73;;;0.50;;
44430;SDS011;30135;47.866;-4.222;2023-03-01T01:06:24;1.35;;;0.63;;
44430;SDS011;30135;47.866;-4.222;2023-03-01T01:08:53;1.27;;;0.68;;
44430;SDS011;30135;47.866;-4.222;2023-03-01T01:11:21;2.30;;;0.50;;
44430;SDS011;30135;47.866;-4.222;2023-03-01T01:13:49;1.45;;;0.60;;
44430;SDS011;30135;47.866;-4.222;2023-03-01T01:16:17;1.48;;;0.50;;
44430;SDS011;30135;47.866;-4.222;2023-03-01T01:18:44;1.17;;;0.50;;
44430;SDS011;30135;47.866;-4.222;2023-03-01T01:21:12;1.85;;;1.20;;
44430;SDS011;30135;47.866;-4.222;2023-03-01T01:23:41;0.98;;;0.43;;
44430;SDS011;30135;47.866;-4.222;2023-03-01T01:26:10;1.30;;;0.50;;
44430;SDS011;30135;47.866;-4.222;2023-03-01T01:28:42;3.85;;;0.80;;
44430;SDS011;30135;47.866;-4.222;2023-03-01T01:31:08;8.80;;;1.10;;
44430;SDS011;30135;47.866;-4.222;2023-03-01T01:33:34;4.03;;;0.70;;
44430;SDS011;30135;47.866;-4.222;2023-03-01T01:36:02;2.22;;;1.40;;
44430;SDS011;30135;47.866;-4.222;2023-03-01T01:38:30;2.50;;;1.10;;
44430;SDS011;30135;47.866;-4.222;2023-03-01T01:40:56;2.72;;;1.27;;
44430;SDS011;30135;47.866;-4.222;2023-03-01T01:43:27;3.17;;;1.30;;
44430;SDS011;30135;47.866;-4.222;2023-03-01T01:46:04;3.22;;;1.20;;
44430;SDS011;30135;47.866;-4.222;2023-03-01T01:48:56;2.95;;;1.58;;
44430;SDS011;30135;47.866;-4.222;2023-03-01T01:51:36;1.67;;;1.30;;
44430;SDS011;30135;47.866;-4.222;2023-03-01T01:54:10;3.47;;;1.42;;
44430;SDS011;30135;47.866;-4.222;2023-03-01T01:56:42;2.97;;;1.45;;
44430;SDS011;30135;47.866;-4.222;2023-03-01T01:59:13;5.70;;;1.65;;
44430;SDS011;30135;47.866;-4.222;2023-03-01T02:01:40;3.78;;;1.90;;
44430;SDS011;30135;47.866;-4.222;2023-03-01T02:04:06;2.67;;;1.70;;
44430;SDS011;30135;47.866;-4.222;2023-03-01T02:06:37;6.43;;;1.83;;
44430;SDS011;30135;47.866;-4.222;2023-03-01T02:09:16;4.18;;;2.17;;
44430;SDS011;30135;47.866;-4.222;2023-03-01T02:11:46;3.88;;;2.05;;
44430;SDS011;30135;47.866;-4.222;2023-03-01T02:14:14;3.83;;;2.50;;
44430;SDS011;30135;47.866;-4.222;2023-03-01T02:16:40;4.97;;;1.90;;
44430;SDS011;30135;47.866;-4.222;2023-03-01T02:19:07;3.38;;;2.13;;
44430;SDS011;30135;47.866;-4.222;2023-03-01T02:22:44;3.58;;;2.63;;
44430;SDS011;30135;47.866;-4.222;2023-03-01T02:24:50;7.05;;;2.58;;
44430;SDS011;30135;47.866;-4.222;2023-03-01T02:27:29;7.28;;;2.67;;
44430;SDS011;30135;47.866;-4.222;2023-03-01T02:30:04;6.25;;;3.47;;
44430;SDS011;30135;47.866;-4.222;2023-03-01T02:32:31;6.05;;;3.30;;
44430;SDS011;30135;47.866;-4.222;2023-03-01T02:34:57;7.40;;;3.63;;
44430;SDS011;30135;47.866;-4.222;2023-03-01T02:37:24;6.35;;;2.90;;
44430;SDS011;30135;47.866;-4.222;2023-03-01T02:39:58;6.05;;;4.05;;
44430;SDS011;30135;47.866;-4.222;2023-03-01T02:42:31;6.72;;;4.07;;
44430;SDS011;30135;47.866;-4.222;2023-03-01T02:45:02;6.20;;;3.30;;
44430;SDS011;30135;47.866;-4.222;2023-03-01T02:47:29;5.50;;;3.53;;
44430;SDS011;30135;47.866;-4.222;2023-03-01T02:50:02;5.53;;;3.40;;
44430;SDS011;30135;47.866;-4.222;2023-03-01T02:53:39;6.32;;;4.00;;
44430;SDS011;30135;47.866;-4.222;2023-03-01T02:56:24;6.07;;;3.65;;
44430;SDS011;30135;47.866;-4.222;2023-03-01T02:58:51;7.57;;;3.00;;
44430;SDS011;30135;47.866;-4.222;2023-03-01T03:01:18;6.88;;;3.97;;
44430;SDS011;30135;47.866;-4.222;2023-03-01T03:03:45;6.20;;;4.13;;
44430;SDS011;30135;47.866;-4.222;2023-03-01T03:06:12;9.43;;;4.30;;
44430;SDS011;30135;47.866;-4.222;2023-03-01T03:08:38;7.05;;;4.25;;
44430;SDS011;30135;47.866;-4.222;2023-03-01T03:11:04;6.95;;;4.47;;
44430;SDS011;30135;47.866;-4.222;2023-03-01T03:13:30;6.82;;;4.30;;
44430;SDS011;30135;47.866;-4.222;2023-03-01T03:15:57;6.35;;;4.00;;
44430;SDS011;30135;47.866;-4.222;2023-03-01T03:18:24;6.50;;;4.40;;
44430;SDS011;30135;47.866;-4.222;2023-03-01T03:23:20;7.35;;;4.63;;
44430;SDS011;30135;47.866;-4.222;2023-03-01T03:25:50;9.90;;;5.70;;
44430;SDS011;30135;47.866;-4.222;2023-03-01T03:28:16;10.52;;;5.90;;
44430;SDS011;30135;47.866;-4.222;2023-03-01T03:30:44;12.70;;;5.28;;
44430;SDS011;30135;47.866;-4.222;2023-03-01T03:33:10;8.32;;;5.10;;
44430;SDS011;30135;47.866;-4.222;2023-03-01T03:35:43;5.75;;;4.45;;
44430;SDS011;30135;47.866;-4.222;2023-03-01T03:38:12;18.05;;;5.03;;
44430;SDS011;30135;47.866;-4.222;2023-03-01T03:43:16;10.98;;;6.00;;
44430;SDS011;30135;47.866;-4.222;2023-03-01T03:45:48;7.32;;;5.10;;
44430;SDS011;30135;47.866;-4.222;2023-03-01T03:48:16;9.20;;;6.13;;
44430;SDS011;30135;47.866;-4.222;2023-03-01T03:50:47;10.00;;;6.07;;
44430;SDS011;30135;47.866;-4.222;2023-03-01T03:53:20;9.30;;;5.38;;
44430;SDS011;30135;47.866;-4.222;2023-03-01T03:55:48;9.68;;;5.90;;
44430;SDS011;30135;47.866;-4.222;2023-03-01T03:58:14;15.63;;;6.93;;
44430;SDS011;30135;47.866;-4.222;2023-03-01T04:00:42;10.15;;;5.80;;
44430;SDS011;30135;47.866;-4.222;2023-03-01T04:03:10;11.63;;;6.82;;
44430;SDS011;30135;47.866;-4.222;2023-03-01T04:05:39;10.00;;;5.65;;
44430;SDS011;30135;47.866;-4.222;2023-03-01T04:08:06;9.13;;;6.47;;
44430;SDS011;30135;47.866;-4.222;2023-03-01T04:10:37;11.70;;;6.65;;
44430;SDS011;30135;47.866;-4.222;2023-03-01T04:13:12;12.95;;;5.82;;
44430;SDS011;30135;47.866;-4.222;2023-03-01T04:15:40;10.55;;;6.80;;
44430;SDS011;30135;47.866;-4.222;2023-03-01T04:18:13;14.48;;;7.20;;
44430;SDS011;30135;47.866;-4.222;2023-03-01T04:20:41;10.50;;;6.97;;
44430;SDS011;30135;47.866;-4.222;2023-03-01T04:23:09;14.82;;;7.15;;
44430;SDS011;30135;47.866;-4.222;2023-03-01T04:25:50;9.48;;;6.43;;
44430;SDS011;30135;47.866;-4.222;2023-03-01T04:28:22;16.67;;;6.47;;
44430;SDS011;30135;47.866;-4.222;2023-03-01T04:33:19;12.18;;;6.38;;
44430;SDS011;30135;47.866;-4.222;2023-03-01T04:35:46;12.40;;;6.03;;
44430;SDS011;30135;47.866;-4.222;2023-03-01T04:38:14;10.18;;;6.05;;
44430;SDS011;30135;47.866;-4.222;2023-03-01T04:40:44;12.93;;;6.40;;
44430;SDS011;30135;47.866;-4.222;2023-03-01T04:43:11;11.43;;;6.60;;
44430;SDS011;30135;47.866;-4.222;2023-03-01T04:48:06;10.75;;;6.32;;
44430;SDS011;30135;47.866;-4.222;2023-03-01T04:50:32;11.38;;;6.45;;
44430;SDS011;30135;47.866;-4.222;2023-03-01T04:52:58;10.73;;;6.30;;
44430;SDS011;30135;47.866;-4.222;2023-03-01T04:55:26;12.73;;;6.88;;
44430;SDS011;30135;47.866;-4.222;2023-03-01T04:57:53;10.43;;;6.72;;
44430;SDS011;30135;47.866;-4.222;2023-03-01T05:00:20;13.05;;;7.90;;
44430;SDS011;30135;47.866;-4.222;2023-03-01T05:02:57;10.57;;;5.80;;
44430;SDS011;30135;47.866;-4.222;2023-03-01T05:05:32;12.30;;;6.75;;
44430;SDS011;30135;47.866;-4.222;2023-03-01T05:08:02;13.23;;;6.78;;
44430;SDS011;30135;47.866;-4.222;2023-03-01T05:13:26;12.20;;;7.90;;
44430;SDS011;30135;47.866;-4.222;2023-03-01T05:15:54;15.00;;;7.30;;
44430;SDS011;30135;47.866;-4.222;2023-03-01T05:18:23;11.02;;;6.45;;
44430;SDS011;30135;47.866;-4.222;2023-03-01T05:20:51;13.00;;;7.90;;
44430;SDS011;30135;47.866;-4.222;2023-03-01T05:23:21;16.65;;;8.90;;
44430;SDS011;30135;47.866;-4.222;2023-03-01T05:25:48;12.77;;;8.30;;
44430;SDS011;30135;47.866;-4.222;2023-03-01T05:28:14;10.90;;;6.72;;
44430;SDS011;30135;47.866;-4.222;2023-03-01T05:30:40;12.48;;;7.20;;
44430;SDS011;30135;47.866;-4.222;2023-03-01T05:33:06;15.13;;;8.65;;
44430;SDS011;30135;47.866;-4.222;2023-03-01T05:35:41;16.40;;;8.10;;
44430;SDS011;30135;47.866;-4.222;2023-03-01T05:38:09;16.08;;;9.00;;
44430;SDS011;30135;47.866;-4.222;2023-03-01T05:40:40;13.57;;;8.00;;
44430;SDS011;30135;47.866;-4.222;2023-03-01T05:43:12;18.15;;;8.10;;
44430;SDS011;30135;47.866;-4.222;2023-03-01T05:45:41;16.40;;;7.93;;
44430;SDS011;30135;47.866;-4.222;2023-03-01T05:48:08;15.15;;;8.77;;
44430;SDS011;30135;47.866;-4.222;2023-03-01T05:50:40;14.48;;;8.60;;
44430;SDS011;30135;47.866;-4.222;2023-03-01T05:53:15;14.15;;;8.07;;
44430;SDS011;30135;47.866;-4.222;2023-03-01T05:55:46;14.10;;;8.93;;
44430;SDS011;30135;47.866;-4.222;2023-03-01T05:58:13;16.42;;;8.38;;
44430;SDS011;30135;47.866;-4.222;2023-03-01T06:00:43;15.70;;;8.75;;
44430;SDS011;30135;47.866;-4.222;2023-03-01T06:03:11;17.85;;;8.50;;
44430;SDS011;30135;47.866;-4.222;2023-03-01T06:05:40;11.70;;;6.45;;
44430;SDS011;30135;47.866;-4.222;2023-03-01T06:08:08;15.52;;;8.68;;
44430;SDS011;30135;47.866;-4.222;2023-03-01T06:10:36;19.48;;;8.90;;
44430;SDS011;30135;47.866;-4.222;2023-03-01T06:13:02;16.95;;;8.68;;
44430;SDS011;30135;47.866;-4.222;2023-03-01T06:15:28;12.38;;;7.50;;
44430;SDS011;30135;47.866;-4.222;2023-03-01T06:17:54;13.13;;;7.97;;
44430;SDS011;30135;47.866;-4.222;2023-03-01T06:20:25;17.77;;;8.63;;
44430;SDS011;30135;47.866;-4.222;2023-03-01T06:22:53;14.35;;;9.00;;
44430;SDS011;30135;47.866;-4.222;2023-03-01T06:25:21;13.93;;;8.23;;
44430;SDS011;30135;47.866;-4.222;2023-03-01T06:27:49;14.60;;;7.72;;
44430;SDS011;30135;47.866;-4.222;2023-03-01T06:30:18;16.08;;;8.48;;
44430;SDS011;30135;47.866;-4.222;2023-03-01T06:32:46;15.50;;;8.38;;
44430;SDS011;30135;47.866;-4.222;2023-03-01T06:35:13;18.23;;;9.27;;
44430;SDS011;30135;47.866;-4.222;2023-03-01T06:40:09;16.40;;;8.10;;
44430;SDS011;30135;47.866;-4.222;2023-03-01T06:42:37;16.75;;;9.40;;
44430;SDS011;30135;47.866;-4.222;2023-03-01T06:45:05;15.07;;;8.68;;
44430;SDS011;30135;47.866;-4.222;2023-03-01T06:47:32;14.23;;;8.02;;
44430;SDS011;30135;47.866;-4.222;2023-03-01T06:49:59;15.50;;;9.02;;
44430;SDS011;30135;47.866;-4.222;2023-03-01T06:52:27;15.65;;;8.75;;
44430;SDS011;30135;47.866;-4.222;2023-03-01T06:54:53;16.33;;;8.45;;
44430;SDS011;30135;47.866;-4.222;2023-03-01T06:57:19;14.13;;;8.50;;
44430;SDS011;30135;47.866;-4.222;2023-03-01T06:59:46;17.02;;;8.82;;
44430;SDS011;30135;47.866;-4.222;2023-03-01T07:02:13;16.40;;;8.43;;
44430;SDS011;30135;47.866;-4.222;2023-03-01T07:04:40;17.10;;;8.70;;
44430;SDS011;30135;47.866;-4.222;2023-03-01T07:07:07;15.73;;;8.10;;
44430;SDS011;30135;47.866;-4.222;2023-03-01T07:09:34;14.40;;;7.88;;
44430;SDS011;30135;47.866;-4.222;2023-03-01T07:12:00;16.55;;;8.65;;
44430;SDS011;30135;47.866;-4.222;2023-03-01T07:14:26;17.48;;;8.13;;
44430;SDS011;30135;47.866;-4.222;2023-03-01T07:16:56;15.60;;;7.80;;
44430;SDS011;30135;47.866;-4.222;2023-03-01T07:19:22;17.63;;;8.18;;
44430;SDS011;30135;47.866;-4.222;2023-03-01T07:21:48;15.90;;;7.50;;
44430;SDS011;30135;47.866;-4.222;2023-03-01T07:24:14;14.27;;;8.05;;
44430;SDS011;30135;47.866;-4.222;2023-03-01T07:26:40;12.18;;;7.22;;
44430;SDS011;30135;47.866;-4.222;2023-03-01T07:29:06;15.70;;;8.43;;
44430;SDS011;30135;47.866;-4.222;2023-03-01T07:31:33;17.67;;;9.00;;
44430;SDS011;30135;47.866;-4.222;2023-03-01T07:33:59;14.93;;;8.38;;
44430;SDS011;30135;47.866;-4.222;2023-03-01T07:36:25;17.17;;;8.15;;
44430;SDS011;30135;47.866;-4.222;2023-03-01T07:38:51;17.40;;;7.60;;
44430;SDS011;30135;47.866;-4.222;2023-03-01T07:41:19;15.85;;;8.52;;
44430;SDS011;30135;47.866;-4.222;2023-03-01T07:43:45;16.33;;;8.35;;
44430;SDS011;30135;47.866;-4.222;2023-03-01T07:46:12;13.98;;;7.18;;
44430;SDS011;30135;47.866;-4.222;2023-03-01T07:48:38;19.65;;;7.82;;
44430;SDS011;30135;47.866;-4.222;2023-03-01T07:51:07;12.00;;;7.22;;
44430;SDS011;30135;47.866;-4.222;2023-03-01T07:53:33;19.23;;;7.30;;
44430;SDS011;30135;47.866;-4.222;2023-03-01T07:56:07;14.40;;;7.28;;
44430;SDS011;30135;47.866;-4.222;2023-03-01T07:58:37;11.60;;;7.03;;
44430;SDS011;30135;47.866;-4.222;2023-03-01T08:01:09;16.88;;;6.57;;
44430;SDS011;30135;47.866;-4.222;2023-03-01T08:03:38;10.95;;;6.65;;
44430;SDS011;30135;47.866;-4.222;2023-03-01T08:06:08;11.57;;;6.15;;
44430;SDS011;30135;47.866;-4.222;2023-03-01T08:08:37;17.98;;;6.78;;
44430;SDS011;30135;47.866;-4.222;2023-03-01T08:11:04;12.55;;;6.82;;
44430;SDS011;30135;47.866;-4.222;2023-03-01T08:13:32;12.65;;;7.15;;
44430;SDS011;30135;47.866;-4.222;2023-03-01T08:16:04;12.38;;;6.80;;
44430;SDS011;30135;47.866;-4.222;2023-03-01T08:18:35;11.65;;;7.22;;
44430;SDS011;30135;47.866;-4.222;2023-03-01T08:21:02;13.95;;;7.65;;
44430;SDS011;30135;47.866;-4.222;2023-03-01T08:23:33;14.50;;;7.75;;
44430;SDS011;30135;47.866;-4.222;2023-03-01T08:26:06;10.93;;;6.57;;
44430;SDS011;30135;47.866;-4.222;2023-03-01T08:28:39;13.10;;;6.47;;
44430;SDS011;30135;47.866;-4.222;2023-03-01T08:31:15;12.35;;;7.43;;
44430;SDS011;30135;47.866;-4.222;2023-03-01T08:33:45;15.43;;;7.93;;
44430;SDS011;30135;47.866;-4.222;2023-03-01T08:36:23;11.20;;;6.63;;
44430;SDS011;30135;47.866;-4.222;2023-03-01T08:38:54;12.73;;;7.57;;
44430;SDS011;30135;47.866;-4.222;2023-03-01T08:41:21;12.13;;;7.45;;
44430;SDS011;30135;47.866;-4.222;2023-03-01T08:43:47;10.07;;;6.38;;
44430;SDS011;30135;47.866;-4.222;2023-03-01T08:46:14;14.40;;;7.15;;
44430;SDS011;30135;47.866;-4.222;2023-03-01T08:48:41;14.70;;;8.15;;
44430;SDS011;30135;47.866;-4.222;2023-03-01T08:51:13;13.70;;;7.18;;
44430;SDS011;30135;47.866;-4.222;2023-03-01T08:53:42;12.65;;;7.32;;
44430;SDS011;30135;47.866;-4.222;2023-03-01T08:56:09;9.00;;;5.88;;
44430;SDS011;30135;47.866;-4.222;2023-03-01T08:58:36;15.07;;;7.28;;
44430;SDS011;30135;47.866;-4.222;2023-03-01T09:01:12;10.80;;;6.82;;
44430;SDS011;30135;47.866;-4.222;2023-03-01T09:03:41;10.40;;;6.32;;
44430;SDS011;30135;47.866;-4.222;2023-03-01T09:06:08;11.93;;;7.03;;
44430;SDS011;30135;47.866;-4.222;2023-03-01T09:08:38;17.55;;;7.82;;
44430;SDS011;30135;47.866;-4.222;2023-03-01T09:11:08;10.73;;;6.72;;
44430;SDS011;30135;47.866;-4.222;2023-03-01T09:13:37;11.77;;;6.38;;
44430;SDS011;30135;47.866;-4.222;2023-03-01T09:16:05;10.75;;;6.35;;
44430;SDS011;30135;47.866;-4.222;2023-03-01T09:18:33;13.50;;;7.25;;
44430;SDS011;30135;47.866;-4.222;2023-03-01T09:21:03;11.25;;;6.15;;
44430;SDS011;30135;47.866;-4.222;2023-03-01T09:23:35;12.80;;;6.03;;
44430;SDS011;30135;47.866;-4.222;2023-03-01T09:26:04;13.33;;;6.23;;
44430;SDS011;30135;47.866;-4.222;2023-03-01T09:28:45;17.02;;;6.82;;
44430;SDS011;30135;47.866;-4.222;2023-03-01T09:31:12;15.07;;;6.90;;
44430;SDS011;30135;47.866;-4.222;2023-03-01T09:36:12;14.57;;;6.67;;
44430;SDS011;30135;47.866;-4.222;2023-03-01T09:38:40;12.05;;;5.80;;
44430;SDS011;30135;47.866;-4.222;2023-03-01T09:44:12;15.40;;;6.38;;
44430;SDS011;30135;47.866;-4.222;2023-03-01T09:46:41;9.88;;;5.85;;
44430;SDS011;30135;47.866;-4.222;2023-03-01T09:49:11;11.15;;;5.80;;
44430;SDS011;30135;47.866;-4.222;2023-03-01T09:51:55;29.42;;;5.63;;
44430;SDS011;30135;47.866;-4.222;2023-03-01T09:54:55;28.02;;;6.28;;
44430;SDS011;30135;47.866;-4.222;2023-03-01T10:03:07;11.95;;;6.05;;
44430;SDS011;30135;47.866;-4.222;2023-03-01T10:05:52;9.98;;;6.03;;
44430;SDS011;30135;47.866;-4.222;2023-03-01T10:08:46;18.60;;;6.60;;
44430;SDS011;30135;47.866;-4.222;2023-03-01T10:11:43;17.77;;;5.53;;
44430;SDS011;30135;47.866;-4.222;2023-03-01T10:14:34;13.95;;;5.60;;
44430;SDS011;30135;47.866;-4.222;2023-03-01T10:17:07;12.77;;;5.80;;
44430;SDS011;30135;47.866;-4.222;2023-03-01T10:19:45;9.80;;;5.38;;
44430;SDS011;30135;47.866;-4.222;2023-03-01T10:24:53;21.25;;;5.57;;
44430;SDS011;30135;47.866;-4.222;2023-03-01T10:27:22;7.78;;;5.30;;
44430;SDS011;30135;47.866;-4.222;2023-03-01T10:32:31;11.77;;;5.85;;
44430;SDS011;30135;47.866;-4.222;2023-03-01T10:34:58;16.10;;;6.53;;
44430;SDS011;30135;47.866;-4.222;2023-03-01T10:37:24;12.55;;;6.15;;
44430;SDS011;30135;47.866;-4.222;2023-03-01T10:42:54;13.82;;;5.57;;
44430;SDS011;30135;47.866;-4.222;2023-03-01T10:51:04;10.48;;;6.10;;
44430;SDS011;30135;47.866;-4.222;2023-03-01T10:53:33;12.30;;;6.72;;
44430;SDS011;30135;47.866;-4.222;2023-03-01T10:56:07;13.40;;;5.78;;
44430;SDS011;30135;47.866;-4.222;2023-03-01T10:58:37;13.70;;;6.72;;
44430;SDS011;30135;47.866;-4.222;2023-03-01T11:03:40;9.43;;;5.68;;
44430;SDS011;30135;47.866;-4.222;2023-03-01T11:14:05;12.10;;;6.78;;
44430;SDS011;30135;47.866;-4.222;2023-03-01T11:16:43;12.82;;;7.10;;
44430;SDS011;30135;47.866;-4.222;2023-03-01T11:21:39;20.70;;;6.60;;
44430;SDS011;30135;47.866;-4.222;2023-03-01T11:24:12;11.13;;;6.25;;
44430;SDS011;30135;47.866;-4.222;2023-03-01T11:26:43;15.20;;;7.25;;
44430;SDS011;30135;47.866;-4.222;2023-03-01T11:29:26;16.58;;;7.15;;
44430;SDS011;30135;47.866;-4.222;2023-03-01T11:32:02;13.68;;;7.22;;
44430;SDS011;30135;47.866;-4.222;2023-03-01T11:37:40;11.50;;;7.07;;
44430;SDS011;30135;47.866;-4.222;2023-03-01T11:40:24;16.67;;;7.50;;
44430;SDS011;30135;47.866;-4.222;2023-03-01T11:43:02;13.52;;;6.47;;
44430;SDS011;30135;47.866;-4.222;2023-03-01T11:45:47;14.40;;;6.63;;
44430;SDS011;30135;47.866;-4.222;2023-03-01T11:54:49;12.75;;;6.55;;
44430;SDS011;30135;47.866;-4.222;2023-03-01T12:03:21;16.50;;;7.10;;
44430;SDS011;30135;47.866;-4.222;2023-03-01T12:21:18;10.27;;;6.05;;
44430;SDS011;30135;47.866;-4.222;2023-03-01T12:24:24;16.65;;;7.85;;
44430;SDS011;30135;47.866;-4.222;2023-03-01T12:33:08;13.25;;;6.50;;
44430;SDS011;30135;47.866;-4.222;2023-03-01T12:38:50;21.20;;;7.88;;
44430;SDS011;30135;47.866;-4.222;2023-03-01T12:52:56;11.23;;;6.32;;
44430;SDS011;30135;47.866;-4.222;2023-03-01T12:55:29;16.30;;;8.02;;
44430;SDS011;30135;47.866;-4.222;2023-03-01T13:17:47;15.13;;;7.53;;
44430;SDS011;30135;47.866;-4.222;2023-03-01T13:20:30;14.48;;;8.27;;
44430;SDS011;30135;47.866;-4.222;2023-03-01T13:23:07;17.00;;;6.93;;
44430;SDS011;30135;47.866;-4.222;2023-03-01T13:33:44;12.40;;;6.13;;
44430;SDS011;30135;47.866;-4.222;2023-03-01T13:39:26;12.63;;;6.65;;
44430;SDS011;30135;47.866;-4.222;2023-03-01T13:41:58;14.25;;;6.90;;
44430;SDS011;30135;47.866;-4.222;2023-03-01T13:44:37;12.32;;;6.50;;
44430;SDS011;30135;47.866;-4.222;2023-03-01T13:49:47;13.27;;;6.82;;
44430;SDS011;30135;47.866;-4.222;2023-03-01T13:52:30;22.17;;;8.70;;
44430;SDS011;30135;47.866;-4.222;2023-03-01T13:57:39;13.90;;;7.40;;
44430;SDS011;30135;47.866;-4.222;2023-03-01T14:00:25;14.50;;;7.85;;
44430;SDS011;30135;47.866;-4.222;2023-03-01T14:03:01;15.23;;;8.05;;
44430;SDS011;30135;47.866;-4.222;2023-03-01T14:05:41;21.40;;;8.73;;
44430;SDS011;30135;47.866;-4.222;2023-03-01T14:08:33;14.75;;;7.43;;
44430;SDS011;30135;47.866;-4.222;2023-03-01T14:11:28;16.85;;;8.32;;
44430;SDS011;30135;47.866;-4.222;2023-03-01T14:14:06;18.23;;;8.40;;
44430;SDS011;30135;47.866;-4.222;2023-03-01T14:16:52;14.57;;;8.02;;
44430;SDS011;30135;47.866;-4.222;2023-03-01T14:19:36;15.73;;;7.90;;
44430;SDS011;30135;47.866;-4.222;2023-03-01T14:24:49;17.52;;;8.50;;
44430;SDS011;30135;47.866;-4.222;2023-03-01T14:27:30;15.68;;;8.60;;
44430;SDS011;30135;47.866;-4.222;2023-03-01T14:30:26;16.02;;;7.40;;
44430;SDS011;30135;47.866;-4.222;2023-03-01T14:32:57;15.18;;;6.70;;
44430;SDS011;30135;47.866;-4.222;2023-03-01T14:35:34;13.68;;;6.88;;
44430;SDS011;30135;47.866;-4.222;2023-03-01T14:38:01;18.67;;;7.40;;
44430;SDS011;30135;47.866;-4.222;2023-03-01T14:40:35;13.77;;;7.93;;
44430;SDS011;30135;47.866;-4.222;2023-03-01T14:43:08;16.50;;;8.10;;
44430;SDS011;30135;47.866;-4.222;2023-03-01T14:45:37;11.90;;;6.90;;
44430;SDS011;30135;47.866;-4.222;2023-03-01T14:48:06;12.38;;;6.40;;
44430;SDS011;30135;47.866;-4.222;2023-03-01T14:50:34;12.48;;;7.20;;
44430;SDS011;30135;47.866;-4.222;2023-03-01T14:53:06;12.05;;;6.28;;
44430;SDS011;30135;47.866;-4.222;2023-03-01T14:55:46;15.75;;;6.60;;
44430;SDS011;30135;47.866;-4.222;2023-03-01T14:58:19;18.90;;;7.05;;
44430;SDS011;30135;47.866;-4.222;2023-03-01T15:00:50;12.43;;;6.47;;
44430;SDS011;30135;47.866;-4.222;2023-03-01T15:03:37;13.75;;;6.45;;
44430;SDS011;30135;47.866;-4.222;2023-03-01T15:06:09;12.05;;;6.25;;
44430;SDS011;30135;47.866;-4.222;2023-03-01T15:08:41;12.30;;;6.40;;
44430;SDS011;30135;47.866;-4.222;2023-03-01T15:11:26;16.10;;;7.13;;
44430;SDS011;30135;47.866;-4.222;2023-03-01T15:13:55;14.80;;;6.88;;
44430;SDS011;30135;47.866;-4.222;2023-03-01T15:16:24;11.00;;;6.47;;
44430;SDS011;30135;47.866;-4.222;2023-03-01T15:19:00;17.10;;;7.40;;
44430;SDS011;30135;47.866;-4.222;2023-03-01T15:21:36;13.57;;;6.53;;
44430;SDS011;30135;47.866;-4.222;2023-03-01T15:26:43;11.95;;;6.80;;
44430;SDS011;30135;47.866;-4.222;2023-03-01T15:29:19;13.57;;;7.53;;
44430;SDS011;30135;47.866;-4.222;2023-03-01T15:32:02;17.70;;;7.67;;
44430;SDS011;30135;47.866;-4.222;2023-03-01T15:37:02;13.10;;;7.45;;
44430;SDS011;30135;47.866;-4.222;2023-03-01T15:47:41;22.75;;;9.02;;
44430;SDS011;30135;47.866;-4.222;2023-03-01T15:50:17;15.98;;;8.52;;
44430;SDS011;30135;47.866;-4.222;2023-03-01T15:52:53;13.43;;;8.18;;
44430;SDS011;30135;47.866;-4.222;2023-03-01T15:55:24;18.10;;;8.77;;
44430;SDS011;30135;47.866;-4.222;2023-03-01T15:57:59;14.80;;;8.95;;
44430;SDS011;30135;47.866;-4.222;2023-03-01T16:00:28;14.65;;;7.70;;
44430;SDS011;30135;47.866;-4.222;2023-03-01T16:02:54;13.93;;;7.10;;
44430;SDS011;30135;47.866;-4.222;2023-03-01T16:05:22;14.80;;;8.15;;
44430;SDS011;30135;47.866;-4.222;2023-03-01T16:07:52;15.48;;;8.32;;
44430;SDS011;30135;47.866;-4.222;2023-03-01T16:10:19;17.58;;;8.20;;
44430;SDS011;30135;47.866;-4.222;2023-03-01T16:12:46;12.90;;;7.85;;
44430;SDS011;30135;47.866;-4.222;2023-03-01T16:15:18;13.23;;;7.32;;
44430;SDS011;30135;47.866;-4.222;2023-03-01T16:17:46;23.25;;;7.57;;
44430;SDS011;30135;47.866;-4.222;2023-03-01T16:20:13;19.88;;;8.10;;
44430;SDS011;30135;47.866;-4.222;2023-03-01T16:22:42;14.40;;;7.43;;
44430;SDS011;30135;47.866;-4.222;2023-03-01T16:25:09;16.27;;;8.77;;
44430;SDS011;30135;47.866;-4.222;2023-03-01T16:27:37;20.20;;;8.68;;
44430;SDS011;30135;47.866;-4.222;2023-03-01T16:30:07;16.95;;;8.02;;
44430;SDS011;30135;47.866;-4.222;2023-03-01T16:32:41;20.17;;;8.38;;
44430;SDS011;30135;47.866;-4.222;2023-03-01T16:35:10;16.95;;;8.77;;
44430;SDS011;30135;47.866;-4.222;2023-03-01T16:37:38;19.20;;;8.45;;
44430;SDS011;30135;47.866;-4.222;2023-03-01T16:40:05;22.45;;;9.68;;
44430;SDS011;30135;47.866;-4.222;2023-03-01T16:42:48;17.02;;;8.80;;
44430;SDS011;30135;47.866;-4.222;2023-03-01T16:45:15;20.88;;;9.00;;
44430;SDS011;30135;47.866;-4.222;2023-03-01T16:47:42;23.05;;;8.32;;
44430;SDS011;30135;47.866;-4.222;2023-03-01T16:50:08;17.92;;;9.48;;
44430;SDS011;30135;47.866;-4.222;2023-03-01T16:52:36;23.13;;;9.07;;
44430;SDS011;30135;47.866;-4.222;2023-03-01T16:55:17;21.02;;;8.85;;
44430;SDS011;30135;47.866;-4.222;2023-03-01T16:57:49;15.13;;;8.38;;
44430;SDS011;30135;47.866;-4.222;2023-03-01T17:00:16;14.40;;;8.65;;
44430;SDS011;30135;47.866;-4.222;2023-03-01T17:02:42;16.85;;;8.80;;
44430;SDS011;30135;47.866;-4.222;2023-03-01T17:05:09;22.80;;;9.27;;
44430;SDS011;30135;47.866;-4.222;2023-03-01T17:07:37;18.35;;;10.00;;
44430;SDS011;30135;47.866;-4.222;2023-03-01T17:10:04;18.98;;;9.15;;
44430;SDS011;30135;47.866;-4.222;2023-03-01T17:12:34;17.73;;;9.50;;
44430;SDS011;30135;47.866;-4.222;2023-03-01T17:15:01;20.38;;;9.77;;
44430;SDS011;30135;47.866;-4.222;2023-03-01T17:17:29;17.88;;;9.15;;
44430;SDS011;30135;47.866;-4.222;2023-03-01T17:19:55;16.67;;;9.05;;
44430;SDS011;30135;47.866;-4.222;2023-03-01T17:22:25;23.88;;;9.68;;
44430;SDS011;30135;47.866;-4.222;2023-03-01T17:24:51;14.68;;;7.97;;
44430;SDS011;30135;47.866;-4.222;2023-03-01T17:27:20;22.00;;;9.13;;
44430;SDS011;30135;47.866;-4.222;2023-03-01T17:29:49;22.02;;;9.82;;